Time;durP1;ratioP1;P1;durP2;ratioP2;P2;SDS_P1;SDS_P2;PMS_P1;PMS_P2;Temp;Humidity;BMP_temperature;BMP_pressure;BME280_temperature;BME280_humidity;BME280_pressure;Samples;Min_cycle;Max_cycle;Signal;HPM_P1;HPM_P2
2022/01/15 07:58:07;;;;;;;;;;;;;;;1.15;70.46;98556.57;1652427;85;20719;-76
2022/01/15 08:00:35;;;;;;;;;;;;;;;1.22;70.56;98559.75;1650827;85;20138;-77
2022/01/15 08:03:01;;;;;;;;;;;;;;;1.44;71.55;98570.17;1652377;85;21226;-76
2022/01/15 08:05:28;;;;;;;;;;;;;;;1.66;70.32;98566.52;1633569;86;20437;-77
2022/01/15 08:07:54;;;;;;;;;;;;;;;1.70;68.28;98578.94;1603617;88;20130;-77
2022/01/15 08:10:22;;;;;;;;;;;;;;;1.65;68.98;98571.66;1655841;85;21070;-76
2022/01/15 08:12:49;;;;;;;;;;;;;;;1.90;68.41;98583.63;1657037;86;20154;-77
2022/01/15 08:15:16;;;;;;;;;;;;;;;2.39;67.68;98565.59;1659156;86;21206;-78
2022/01/15 08:17:43;;;;;;;;;;;;;;;2.84;66.08;98580.56;1657947;86;20488;-76
2022/01/15 08:20:10;;;;;;;;;;;;;;;3.05;64.91;98579.20;1666740;84;20104;-77
2022/01/15 08:22:38;;;;;;;;;;;;;;;2.92;64.16;98561.73;1666391;84;20092;-76
2022/01/15 08:25:06;;;;;;;;;;;;;;;2.69;65.01;98580.73;1652459;84;20209;-76
2022/01/15 08:27:32;;;;;;;;;;;;;;;2.78;66.57;98587.94;1649380;85;21233;-77
2022/01/15 08:29:58;;;;;;;;;;;;;;;2.93;64.04;98581.52;1649045;84;20106;-76
2022/01/15 08:32:24;;;;;;;;;;;;;;;2.88;64.40;98611.42;1646904;85;20245;-75
2022/01/15 08:34:51;;;;;;;;;;;;;;;2.88;64.85;98591.09;1649091;85;20170;-77
2022/01/15 08:37:18;;;;;;;;;;;;;;;3.18;64.59;98595.31;1659513;84;20184;-76
2022/01/15 08:39:44;;;;;;;;;;;;;;;3.54;63.83;98588.84;1653204;85;21146;-76
2022/01/15 08:42:11;;;;;;;;;;;;;;;3.69;62.03;98594.06;1653032;85;20122;-78
2022/01/15 08:44:42;;;;;;;;;;;;;;;3.52;62.73;98594.56;1652927;85;20455;-76
2022/01/15 08:47:06;;;;;;;;;;;;;;;3.59;63.12;98604.51;1643640;86;20161;-75
2022/01/15 08:49:33;;;;;;;;;;;;;;;3.83;61.77;98582.72;1653577;85;20147;-77
2022/01/15 08:51:59;;;;;;;;;;;;;;;3.70;61.96;98595.67;1657138;85;21215;-76
2022/01/15 08:54:25;;;;;;;;;;;;;;;3.47;63.63;98593.83;1657010;84;21757;-75
2022/01/15 08:56:53;;;;;;;;;;;;;;;3.41;63.88;98605.33;1659501;84;20102;-75
2022/01/15 08:59:20;;;;;;;;;;;;;;;3.22;63.77;98608.01;1664347;85;20142;-73
2022/01/15 09:01:46;;;;;;;;;;;;;;;2.94;65.65;98588.55;1649875;85;20136;-74
2022/01/15 09:04:12;;;;;;;;;;;;;;;2.64;66.19;98601.36;1646555;86;21059;-74
2022/01/15 09:06:39;;;;;;;;;;;;;;;2.64;67.44;98593.23;1648992;86;20106;-75
2022/01/15 09:09:06;;;;;;;;;;;;;;;2.81;67.23;98621.80;1643702;86;20129;-75
2022/01/15 09:11:32;;;;;;;;;;;;;;;2.74;66.85;98602.36;1654641;85;20124;-76
2022/01/15 09:13:59;;;;;;;;;;;;;;;2.62;67.73;98613.59;1646414;86;20504;-78
2022/01/15 09:16:26;;;;;;;;;;;;;;;2.54;67.66;98619.08;1659153;85;21167;-75
2022/01/15 09:18:52;;;;;;;;;;;;;;;2.72;67.66;98614.84;1656689;85;21688;-74
2022/01/15 09:21:18;;;;;;;;;;;;;;;2.89;67.77;98627.91;1644021;86;20450;-75
2022/01/15 09:23:45;;;;;;;;;;;;;;;2.92;67.37;98616.50;1639808;86;20180;-74
2022/01/15 09:26:20;;;;;;;;;;;;;;;2.69;66.88;98610.53;1658940;86;20102;-75
2022/01/15 09:31:24;;;;;;;;;;;;;;;2.43;69.58;98622.16;1652159;86;20137;-75
2022/01/15 09:33:51;;;;;;;;;;;;;;;2.49;68.88;98628.61;1661583;86;20150;-75
2022/01/15 09:36:17;;;;;;;;;;;;;;;2.42;68.59;98625.42;1656612;86;20189;-73
2022/01/15 09:38:43;;;;;;;;;;;;;;;2.47;68.98;98632.69;1657855;86;20173;-72
2022/01/15 09:41:10;;;;;;;;;;;;;;;2.48;68.15;98601.80;1654410;86;21185;-72
2022/01/15 09:43:38;;;;;;;;;;;;;;;2.38;68.28;98628.44;1641904;86;20165;-72
2022/01/15 09:46:04;;;;;;;;;;;;;;;2.26;68.75;98627.48;1662305;86;20113;-74
2022/01/15 09:48:31;;;;;;;;;;;;;;;2.19;69.16;98623.48;1659469;86;20149;-73
2022/01/15 09:50:57;;;;;;;;;;;;;;;2.18;68.83;98572.58;1659428;86;20094;-73
2022/01/15 09:53:24;;;;;;;;;;;;;;;2.13;68.61;98631.38;1661449;86;21163;-73
2022/01/15 09:55:52;;;;;;;;;;;;;;;2.10;68.85;98643.58;1655989;86;20089;-73
2022/01/15 09:58:18;;;;;;;;;;;;;;;2.12;69.53;98617.03;1662149;86;20171;-74
2022/01/15 10:00:45;;;;;;;;;;;;;;;2.11;68.71;98628.95;1661808;86;20468;-74
2022/01/15 10:03:12;;;;;;;;;;;;;;;1.99;68.37;98627.95;1662844;86;20134;-74
2022/01/15 10:05:38;;;;;;;;;;;;;;;1.89;70.53;98630.73;1656510;86;21089;-78
2022/01/15 10:08:09;;;;;;;;;;;;;;;1.78;70.13;98634.59;1660916;86;20106;-82
2022/01/15 10:10:39;;;;;;;;;;;;;;;1.67;70.24;98641.18;1662241;86;20094;-71
2022/01/15 10:13:21;;;;;;;;;;;;;;;1.59;70.89;98647.17;1662452;86;20129;-72
2022/01/15 10:16:03;;;;;;;;;;;;;;;1.54;70.94;98637.73;1651427;86;20162;-69
2022/01/15 10:18:33;;;;;;;;;;;;;;;1.53;71.40;98630.70;1657012;86;21206;-70
2022/01/15 11:05:29;;;;;;;;;;;;;;;1.85;71.42;98678.39;1628813;87;20100;-73
2022/01/15 11:08:06;;;;;;;;;;;;;;;2.00;69.87;98681.55;1633374;87;20153;-73
2022/01/15 11:10:45;;;;;;;;;;;;;;;2.15;69.86;98683.34;1663025;86;20153;-74
2022/01/15 11:13:14;;;;;;;;;;;;;;;2.26;69.08;98676.77;1661615;86;20656;-74
2022/01/15 11:15:46;;;;;;;;;;;;;;;2.29;68.10;98678.91;1661957;86;20094;-72
2022/01/15 11:18:21;;;;;;;;;;;;;;;2.24;67.46;98670.28;1646514;86;21172;-73
2022/01/15 11:20:50;;;;;;;;;;;;;;;2.17;68.72;98665.73;1663401;86;20130;-73
2022/01/15 11:23:19;;;;;;;;;;;;;;;2.10;67.89;98688.25;1659754;86;20101;-75
2022/01/15 11:25:45;;;;;;;;;;;;;;;2.03;68.06;98688.30;1661815;86;20472;-74
2022/01/15 11:28:12;;;;;;;;;;;;;;;1.97;68.22;98672.09;1657874;86;20113;-75
2022/01/15 11:30:39;;;;;;;;;;;;;;;1.96;68.89;98691.31;1657097;86;21179;-75
2022/01/15 11:33:07;;;;;;;;;;;;;;;1.94;68.71;98688.89;1655643;86;20090;-74
2022/01/15 11:35:47;;;;;;;;;;;;;;;1.96;68.21;98704.85;1655312;86;20106;-74
2022/01/15 11:38:45;;;;;;;;;;;;;;;1.97;70.13;98690.23;1664796;86;20138;-74
2022/01/15 11:41:31;;;;;;;;;;;;;;;2.01;68.78;98706.72;1662949;86;20089;-79
2022/01/15 11:44:01;;;;;;;;;;;;;;;1.96;68.44;98700.25;1663382;86;22165;-78
2022/01/15 11:46:32;;;;;;;;;;;;;;;1.92;69.74;98698.38;1663685;85;20558;-77
2022/01/15 11:49:28;;;;;;;;;;;;;;;1.89;68.77;98722.75;1656228;86;20126;-78
2022/01/15 11:52:11;;;;;;;;;;;;;;;1.85;68.89;98708.16;1662723;86;20129;-79
2022/01/15 11:54:51;;;;;;;;;;;;;;;1.84;70.27;98724.13;1643226;86;20102;-77
2022/01/15 11:57:25;;;;;;;;;;;;;;;1.82;68.95;98730.91;1646473;86;21140;-77
2022/01/15 11:59:53;;;;;;;;;;;;;;;1.79;69.24;98698.45;1665970;86;20441;-77
2022/01/15 12:02:30;;;;;;;;;;;;;;;1.76;69.20;98732.83;1651696;86;20425;-77
2022/01/15 12:05:18;;;;;;;;;;;;;;;1.72;69.49;98739.91;1663259;84;20216;-78
2022/01/15 12:08:03;;;;;;;;;;;;;;;1.67;70.30;98739.94;1661346;84;20466;-80
2022/01/15 12:10:41;;;;;;;;;;;;;;;1.62;71.01;98735.90;1655371;85;21180;-69
2022/01/15 12:13:12;;;;;;;;;;;;;;;1.56;71.37;98760.00;1635342;86;20227;-76
2022/01/15 12:15:38;;;;;;;;;;;;;;;1.49;71.76;98756.23;1649216;86;20138;-75
2022/01/15 12:18:19;;;;;;;;;;;;;;;1.48;72.03;98747.84;1645938;86;20733;-72
2022/01/15 12:20:45;;;;;;;;;;;;;;;1.48;71.63;98760.02;1638749;86;20549;-74
2022/01/15 12:23:25;;;;;;;;;;;;;;;1.49;71.30;98768.41;1635863;86;21081;-77
2022/01/15 12:25:54;;;;;;;;;;;;;;;1.49;71.04;98776.52;1637985;86;20233;-76
2022/01/15 12:28:22;;;;;;;;;;;;;;;1.47;71.53;98788.16;1636877;86;20106;-74
2022/01/15 12:30:50;;;;;;;;;;;;;;;1.44;71.45;98786.54;1643476;86;20087;-72
2022/01/15 12:33:17;;;;;;;;;;;;;;;1.42;71.58;98794.12;1648599;86;20450;-74
2022/01/15 12:35:51;;;;;;;;;;;;;;;1.38;71.85;98793.85;1657771;85;21949;-70
2022/01/15 12:38:25;;;;;;;;;;;;;;;1.37;72.10;98793.58;1643654;86;20099;-73
2022/01/15 12:40:49;;;;;;;;;;;;;;;1.37;71.42;98807.65;1638474;86;20163;-68
2022/01/15 12:43:28;;;;;;;;;;;;;;;1.32;71.74;98802.52;1662108;85;20102;-73
2022/01/15 12:46:02;;;;;;;;;;;;;;;1.29;71.49;98774.67;1638780;86;20157;-75
2022/01/15 12:48:31;;;;;;;;;;;;;;;1.29;71.56;98803.06;1658659;84;21508;-68
2022/01/15 12:50:59;;;;;;;;;;;;;;;1.28;71.91;98801.44;1642169;85;20492;-68
2022/01/15 12:53:26;;;;;;;;;;;;;;;1.25;72.33;98818.75;1631644;86;20443;-72
2022/01/15 12:55:54;;;;;;;;;;;;;;;1.24;73.16;98833.35;1646085;85;20756;-68
2022/01/15 12:58:23;;;;;;;;;;;;;;;1.21;72.48;98840.66;1658955;85;20173;-72
2022/01/15 13:00:49;;;;;;;;;;;;;;;1.20;72.76;98831.73;1654593;85;21249;-75
2022/01/15 13:03:18;;;;;;;;;;;;;;;1.19;74.02;98835.52;1657700;85;20187;-67
2022/01/15 13:05:49;;;;;;;;;;;;;;;1.19;73.50;98851.74;1645626;85;20142;-67
2022/01/15 13:08:17;;;;;;;;;;;;;;;1.18;73.47;98846.06;1657225;84;20437;-67
2022/01/15 13:13:27;;;;;;;;;;;;;;;1.15;73.96;98864.20;1648036;86;21605;-68
2022/01/15 13:15:59;;;;;;;;;;;;;;;1.13;73.80;98870.42;1662329;85;20484;-68
2022/01/15 13:18:28;;;;;;;;;;;;;;;1.13;73.90;98870.97;1658384;86;20101;-68
2022/01/15 13:20:54;;;;;;;;;;;;;;;1.13;74.41;98873.13;1654486;85;20196;-68
2022/01/15 13:23:24;;;;;;;;;;;;;;;1.15;74.66;98879.08;1648143;85;20122;-68
2022/01/15 13:25:51;;;;;;;;;;;;;;;1.15;74.26;98883.13;1647544;85;21180;-74
2022/01/15 13:28:17;;;;;;;;;;;;;;;1.17;74.97;98892.30;1651505;86;20126;-76
2022/01/15 13:30:49;;;;;;;;;;;;;;;1.15;75.12;98889.89;1645842;85;20977;-77
2022/01/15 13:33:16;;;;;;;;;;;;;;;1.19;74.34;98899.59;1646148;86;20456;-78
2022/01/15 13:35:43;;;;;;;;;;;;;;;1.13;75.40;98898.81;1658656;85;20140;-75
2022/01/15 13:38:11;;;;;;;;;;;;;;;1.13;75.32;98895.30;1648819;86;20817;-76
2022/01/15 13:40:41;;;;;;;;;;;;;;;1.10;75.25;98908.00;1640523;86;20346;-77
2022/01/15 13:43:09;;;;;;;;;;;;;;;1.06;75.39;98907.73;1641384;86;20119;-74
2022/01/15 13:45:43;;;;;;;;;;;;;;;1.06;76.37;98917.19;1651195;85;20203;-75
2022/01/15 13:48:12;;;;;;;;;;;;;;;1.03;75.59;98915.02;1653772;85;20198;-74
2022/01/15 13:53:31;;;;;;;;;;;;;;;0.97;76.23;98920.15;1642322;86;20445;-77
2022/01/15 13:56:16;;;;;;;;;;;;;;;0.95;76.44;98922.31;1658802;84;20752;-69
2022/01/15 13:58:43;;;;;;;;;;;;;;;0.92;76.44;98923.66;1646593;86;20102;-73
2022/01/15 14:01:21;;;;;;;;;;;;;;;0.92;76.92;98926.36;1672545;84;20441;-80
2022/01/15 14:03:48;;;;;;;;;;;;;;;0.92;77.30;98935.81;1672147;84;22175;-77
2022/01/15 14:06:14;;;;;;;;;;;;;;;0.91;77.04;98942.30;1650538;84;20581;-68
2022/01/15 14:08:41;;;;;;;;;;;;;;;0.90;76.86;98942.56;1653174;85;20181;-68
2022/01/15 14:11:10;;;;;;;;;;;;;;;0.89;77.70;98947.70;1641382;85;20158;-69
2022/01/15 14:13:36;;;;;;;;;;;;;;;0.91;77.26;98956.35;1646907;86;20452;-68
2022/01/15 14:16:21;;;;;;;;;;;;;;;0.90;76.95;98959.59;1658166;85;21085;-68
2022/01/15 14:19:24;;;;;;;;;;;;;;;0.90;77.34;98957.42;1654900;85;20153;-68
2022/01/15 14:24:03;;;;;;;;;;;;;;;0.88;76.40;98964.99;1654191;85;20157;-67
2022/01/15 14:26:29;;;;;;;;;;;;;;;0.85;76.72;98970.39;1642010;85;20179;-68
2022/01/15 14:28:57;;;;;;;;;;;;;;;0.86;76.82;98974.72;1634900;87;21191;-68
2022/01/15 14:31:23;;;;;;;;;;;;;;;0.85;76.41;98975.80;1634787;87;20112;-77
2022/01/15 14:33:51;;;;;;;;;;;;;;;0.83;76.60;98986.05;1631725;88;20408;-73
2022/01/15 14:36:18;;;;;;;;;;;;;;;0.82;77.76;98987.67;1654007;84;20142;-71
2022/01/15 14:38:44;;;;;;;;;;;;;;;0.83;77.08;98986.59;1674195;84;20504;-69
2022/01/15 14:41:11;;;;;;;;;;;;;;;0.83;76.71;98982.00;1649135;86;21094;-67
2022/01/15 14:43:37;;;;;;;;;;;;;;;0.84;77.47;98990.92;1604264;88;20190;-67
2022/01/15 14:46:04;;;;;;;;;;;;;;;0.84;78.12;98995.78;1663862;85;20180;-67
2022/01/15 14:48:32;;;;;;;;;;;;;;;0.85;77.71;98999.30;1614005;87;20652;-66
2022/01/15 14:50:59;;;;;;;;;;;;;;;0.83;77.64;99000.91;1670409;85;20161;-66
2022/01/15 14:53:25;;;;;;;;;;;;;;;0.82;77.50;98997.94;1671287;84;21111;-66
2022/01/15 14:55:51;;;;;;;;;;;;;;;0.82;77.16;99005.23;1677495;84;20476;-71
2022/01/15 14:58:18;;;;;;;;;;;;;;;0.79;76.98;99005.23;1661096;85;20206;-69
2022/01/15 15:00:45;;;;;;;;;;;;;;;0.78;77.60;99007.66;1652889;85;20198;-71
2022/01/15 15:03:11;;;;;;;;;;;;;;;0.78;77.67;99025.75;1642538;85;20103;-68
2022/01/15 15:05:38;;;;;;;;;;;;;;;0.79;78.00;99016.57;1635109;86;21168;-65
2022/01/15 15:08:05;;;;;;;;;;;;;;;0.78;77.44;99025.22;1641527;86;20154;-67
2022/01/15 15:10:32;;;;;;;;;;;;;;;0.78;78.25;99031.16;1646129;86;20435;-67
2022/01/15 15:12:59;;;;;;;;;;;;;;;0.76;78.49;99035.47;1626308;85;20131;-66
2022/01/15 15:15:25;;;;;;;;;;;;;;;0.74;77.91;99029.52;1627706;86;20134;-77
2022/01/15 15:17:53;;;;;;;;;;;;;;;0.74;79.27;99038.16;1636424;86;20106;-81
2022/01/15 15:20:19;;;;;;;;;;;;;;;0.74;78.33;99044.92;1638948;86;20143;-75
2022/01/15 15:22:46;;;;;;;;;;;;;;;0.73;78.24;99047.34;1646940;86;20174;-72
2022/01/15 15:25:12;;;;;;;;;;;;;;;0.71;78.50;99048.14;1646187;86;20759;-72
2022/01/15 15:27:40;;;;;;;;;;;;;;;0.68;79.15;99042.73;1645744;86;20109;-69
2022/01/15 15:30:11;;;;;;;;;;;;;;;0.64;78.84;99051.09;1635838;86;21054;-68
2022/01/15 15:32:39;;;;;;;;;;;;;;;0.61;79.56;99063.23;1589292;89;21145;-70
2022/01/15 15:35:06;;;;;;;;;;;;;;;0.61;81.08;99078.63;1655244;84;20150;-69
2022/01/15 15:37:34;;;;;;;;;;;;;;;0.57;81.50;99075.66;1633088;85;20164;-68
2022/01/15 15:40:00;;;;;;;;;;;;;;;0.52;82.10;99079.69;1634430;86;20465;-76
2022/01/15 15:42:26;;;;;;;;;;;;;;;0.47;83.34;99076.14;1645088;84;21127;-72
2022/01/15 15:44:53;;;;;;;;;;;;;;;0.42;84.05;99085.56;1659308;84;20197;-72
2022/01/15 15:47:20;;;;;;;;;;;;;;;0.38;84.25;99063.66;1657796;85;20238;-72
2022/01/15 15:49:48;;;;;;;;;;;;;;;0.35;84.62;99087.67;1668408;84;20213;-70
2022/01/15 15:52:14;;;;;;;;;;;;;;;0.32;85.98;99095.75;1673307;84;20179;-69
2022/01/15 15:54:40;;;;;;;;;;;;;;;0.30;85.67;99088.45;1676482;84;21173;-69
2022/01/15 15:57:12;;;;;;;;;;;;;;;0.29;85.62;99096.27;1644286;85;20174;-68
2022/01/15 15:59:41;;;;;;;;;;;;;;;0.28;86.21;99110.31;1643498;85;20204;-67
2022/01/15 16:02:09;;;;;;;;;;;;;;;0.30;87.27;99111.41;1629290;86;20469;-70
2022/01/15 16:04:35;;;;;;;;;;;;;;;0.29;88.36;99111.13;1652025;84;20222;-69
2022/01/15 16:07:02;;;;;;;;;;;;;;;0.25;89.21;99126.22;1667620;84;21212;-69
2022/01/15 16:09:29;;;;;;;;;;;;;;;0.21;90.21;99117.00;1655935;85;20194;-71
2022/01/15 16:11:55;;;;;;;;;;;;;;;0.17;90.58;99123.45;1633555;86;20202;-70
2022/01/15 16:14:24;;;;;;;;;;;;;;;0.10;92.03;99102.61;1636894;86;20179;-69
2022/01/15 16:16:51;;;;;;;;;;;;;;;0.06;92.86;99128.48;1641505;86;20163;-68
2022/01/15 16:19:18;;;;;;;;;;;;;;;0.03;92.74;99124.14;1631749;86;21168;-68
2022/01/15 16:21:45;;;;;;;;;;;;;;;-0.01;92.00;99127.38;1647114;86;20139;-68
2022/01/15 16:24:11;;;;;;;;;;;;;;;-0.03;91.25;99122.78;1639514;86;20205;-69
2022/01/15 16:26:39;;;;;;;;;;;;;;;-0.01;91.37;99126.56;1649681;86;20467;-68
2022/01/15 16:29:06;;;;;;;;;;;;;;;-0.01;90.85;99121.17;1663237;84;20164;-67
2022/01/15 16:31:33;;;;;;;;;;;;;;;-0.01;90.69;99142.23;1638628;85;22055;-67
2022/01/15 16:34:00;;;;;;;;;;;;;;;-0.01;91.12;99120.64;1641616;84;20180;-67
2022/01/15 16:36:27;;;;;;;;;;;;;;;0.03;90.99;99148.42;1641883;84;20212;-67
2022/01/15 16:38:53;;;;;;;;;;;;;;;0.04;90.71;99139.27;1652341;84;22099;-67
2022/01/15 16:41:21;;;;;;;;;;;;;;;0.05;90.45;99156.55;1626790;84;20483;-68
2022/01/15 16:43:48;;;;;;;;;;;;;;;0.05;91.00;99154.38;1622544;86;21165;-68
2022/01/15 16:46:14;;;;;;;;;;;;;;;0.07;90.52;99167.09;1660531;86;21082;-68
2022/01/15 16:48:41;;;;;;;;;;;;;;;0.07;90.32;99162.50;1664534;86;20221;-68
2022/01/15 16:51:07;;;;;;;;;;;;;;;0.07;90.87;99168.44;1658657;86;20154;-68
2022/01/15 16:53:34;;;;;;;;;;;;;;;0.07;90.66;99167.09;1657810;86;20496;-68
2022/01/15 16:56:03;;;;;;;;;;;;;;;0.08;90.22;99168.72;1635224;86;20434;-67
2022/01/15 16:58:30;;;;;;;;;;;;;;;0.10;90.66;99177.37;1653540;85;20471;-67
2022/01/15 17:00:57;;;;;;;;;;;;;;;0.11;90.44;99175.77;1657623;85;20182;-68
2022/01/15 17:03:24;;;;;;;;;;;;;;;0.11;89.84;99183.05;1650799;85;20657;-68
2022/01/15 17:05:50;;;;;;;;;;;;;;;0.10;89.53;99181.42;1633417;86;20187;-67
2022/01/15 17:08:17;;;;;;;;;;;;;;;0.13;89.96;99198.45;1649823;85;21175;-67
2022/01/15 17:10:43;;;;;;;;;;;;;;;0.13;88.94;99197.11;1662024;85;20195;-68
2022/01/15 17:13:10;;;;;;;;;;;;;;;0.14;89.37;99201.43;1654893;85;20185;-69
2022/01/15 17:15:41;;;;;;;;;;;;;;;0.15;89.21;99201.17;1627349;88;20133;-68
2022/01/15 17:18:06;;;;;;;;;;;;;;;0.18;88.81;99213.34;1666683;85;20146;-67
2022/01/15 17:20:33;;;;;;;;;;;;;;;0.19;88.22;99205.53;1675714;85;21812;-68
2022/01/15 17:23:01;;;;;;;;;;;;;;;0.19;87.76;99205.53;1646974;86;20131;-69
2022/01/15 17:25:27;;;;;;;;;;;;;;;0.20;88.55;99209.32;1664650;85;20084;-69
2022/01/15 17:27:53;;;;;;;;;;;;;;;0.22;87.44;99212.58;1672394;85;20148;-69
2022/01/15 17:30:20;;;;;;;;;;;;;;;0.22;87.40;99215.81;1663920;85;20428;-68
2022/01/15 17:32:46;;;;;;;;;;;;;;;0.22;87.96;99219.86;1656884;85;21194;-68
2022/01/15 17:35:12;;;;;;;;;;;;;;;0.25;88.11;99220.17;1655253;85;20125;-68
2022/01/15 17:37:41;;;;;;;;;;;;;;;0.26;87.06;99222.33;1671853;85;20116;-67
2022/01/15 17:40:08;;;;;;;;;;;;;;;0.25;86.84;99216.66;1670547;84;20209;-67
2022/01/15 17:42:39;;;;;;;;;;;;;;;0.26;86.99;99222.33;1670786;84;20192;-67
2022/01/15 17:45:06;;;;;;;;;;;;;;;0.26;86.36;99226.38;1686426;84;21190;-68
2022/01/15 17:47:33;;;;;;;;;;;;;;;0.26;86.05;99234.48;1652705;85;20180;-68
2022/01/15 17:49:59;;;;;;;;;;;;;;;0.27;86.51;99233.41;1638002;85;20191;-68
2022/01/15 17:52:29;;;;;;;;;;;;;;;0.30;86.08;99249.10;1630610;87;20484;-68
2022/01/15 17:54:55;;;;;;;;;;;;;;;0.32;85.92;99246.42;1640492;86;20133;-68
2022/01/15 17:57:21;;;;;;;;;;;;;;;0.33;86.23;99245.89;1633860;86;21085;-67
2022/01/15 17:59:49;;;;;;;;;;;;;;;0.43;88.48;99260.02;1637760;86;20623;-68
2022/01/15 18:02:16;;;;;;;;;;;;;;;0.46;85.16;99252.76;1642514;86;20510;-68
2022/01/15 18:04:42;;;;;;;;;;;;;;;0.45;84.75;99261.93;1633275;87;20148;-68
2022/01/15 18:07:09;;;;;;;;;;;;;;;0.44;84.01;99260.30;1637884;86;20693;-69
2022/01/15 18:09:36;;;;;;;;;;;;;;;0.42;83.81;99255.16;1637767;86;21181;-69
2022/01/15 18:12:05;;;;;;;;;;;;;;;0.42;83.96;99270.55;1639534;86;20180;-76
2022/01/15 18:14:31;;;;;;;;;;;;;;;0.42;83.49;99270.55;1628995;87;20188;-69
2022/01/15 18:16:58;;;;;;;;;;;;;;;0.42;82.96;99271.36;1645160;86;20143;-68
2022/01/15 18:19:24;;;;;;;;;;;;;;;0.42;82.81;99275.94;1663113;86;20202;-68
2022/01/15 18:21:51;;;;;;;;;;;;;;;0.42;83.28;99272.70;1656963;86;21147;-69
2022/01/15 18:24:18;;;;;;;;;;;;;;;0.44;82.73;99284.07;1658713;85;20308;-69
2022/01/15 18:26:45;;;;;;;;;;;;;;;0.45;82.56;99279.48;1642460;86;20176;-69
2022/01/15 18:29:12;;;;;;;;;;;;;;;0.43;82.63;99281.09;1654219;86;20186;-69
2022/01/15 18:31:38;;;;;;;;;;;;;;;0.42;82.72;99277.30;1630559;85;20471;-68
2022/01/15 18:34:04;;;;;;;;;;;;;;;0.42;81.63;99285.39;1644286;86;21160;-68
2022/01/15 18:36:31;;;;;;;;;;;;;;;0.42;81.98;99283.51;1640145;87;20168;-69
2022/01/15 18:38:57;;;;;;;;;;;;;;;0.43;83.15;99285.14;1639158;87;20123;-69
2022/01/15 18:41:23;;;;;;;;;;;;;;;0.44;82.47;99298.92;1630845;87;20169;-69
2022/01/15 18:43:49;;;;;;;;;;;;;;;0.43;82.26;99293.24;1638103;87;20157;-68
2022/01/15 18:46:16;;;;;;;;;;;;;;;0.41;82.78;99292.68;1633100;87;21085;-69
2022/01/15 18:48:43;;;;;;;;;;;;;;;0.41;82.90;99309.42;1630356;86;20277;-68
2022/01/15 18:51:10;;;;;;;;;;;;;;;0.40;82.31;99309.14;1627526;87;20212;-69
2022/01/15 18:53:37;;;;;;;;;;;;;;;0.39;82.16;99331.28;1627732;87;20167;-68
2022/01/15 18:56:04;;;;;;;;;;;;;;;0.40;81.94;99350.46;1640325;87;20453;-69
2022/01/15 18:58:31;;;;;;;;;;;;;;;0.41;82.05;99358.84;1645788;87;21116;-68
2022/01/15 19:00:59;;;;;;;;;;;;;;;0.42;82.04;99393.42;1635863;87;20136;-69
2022/01/15 19:03:25;;;;;;;;;;;;;;;0.43;81.91;99383.72;1649215;87;20134;-69
2022/01/15 19:05:52;;;;;;;;;;;;;;;0.46;81.66;99460.72;1638847;87;20136;-69
2022/01/15 19:08:18;;;;;;;;;;;;;;;0.49;81.45;99431.85;1628492;87;20181;-69
2022/01/15 19:10:46;;;;;;;;;;;;;;;0.50;81.03;99438.35;1646398;87;21153;-69
2022/01/15 19:13:12;;;;;;;;;;;;;;;0.51;82.03;99386.50;1648748;87;20434;-69
2022/01/15 19:15:39;;;;;;;;;;;;;;;0.53;81.05;99337.09;1640298;87;20295;-69
2022/01/15 19:18:08;;;;;;;;;;;;;;;0.51;81.04;99260.37;1627967;87;20183;-69
2022/01/15 19:20:37;;;;;;;;;;;;;;;0.47;81.41;99234.95;1636002;87;20155;-68
2022/01/15 19:23:04;;;;;;;;;;;;;;;0.46;81.91;99270.31;1633024;87;21092;-70
2022/01/15 19:25:30;;;;;;;;;;;;;;;0.43;81.67;99281.09;1646670;87;20182;-69
2022/01/15 19:27:59;;;;;;;;;;;;;;;0.42;81.65;99321.86;1645887;86;20079;-69
2022/01/15 19:30:27;;;;;;;;;;;;;;;0.39;82.58;99347.48;1644585;87;20166;-69
2022/01/15 19:32:53;;;;;;;;;;;;;;;0.38;82.29;99371.50;1647103;87;20152;-69
2022/01/15 19:35:19;;;;;;;;;;;;;;;0.37;82.14;99414.43;1649178;87;21196;-67
2022/01/15 19:37:47;;;;;;;;;;;;;;;0.36;82.13;99380.39;1649261;87;20138;-67
2022/01/15 19:40:15;;;;;;;;;;;;;;;0.36;82.50;99399.83;1639527;86;20230;-70
2022/01/15 19:42:42;;;;;;;;;;;;;;;0.35;82.00;99387.39;1640972;87;20188;-69
2022/01/15 19:45:14;;;;;;;;;;;;;;;0.36;81.84;99363.38;1631048;87;20221;-69
2022/01/15 19:47:41;;;;;;;;;;;;;;;0.36;82.25;99345.82;1636194;87;21173;-69
2022/01/15 19:50:10;;;;;;;;;;;;;;;0.38;82.21;99309.93;1636361;87;20132;-70
2022/01/15 19:52:37;;;;;;;;;;;;;;;0.37;80.91;99309.65;1645282;86;20153;-69
2022/01/15 19:55:06;;;;;;;;;;;;;;;0.36;81.29;99285.06;1636773;85;20185;-69
2022/01/15 19:57:35;;;;;;;;;;;;;;;0.36;81.39;99310.19;1656453;85;20469;-69
2022/01/15 20:00:05;;;;;;;;;;;;;;;0.35;80.95;99332.86;1666712;85;21177;-68
2022/01/15 20:02:36;;;;;;;;;;;;;;;0.34;80.77;99355.53;1634789;86;20108;-69
2022/01/15 20:05:03;;;;;;;;;;;;;;;0.35;81.79;99334.73;1648740;86;20176;-68
2022/01/15 20:07:29;;;;;;;;;;;;;;;0.36;80.99;99360.14;1642966;86;20156;-68
2022/01/15 20:09:57;;;;;;;;;;;;;;;0.37;80.72;99371.22;1680920;84;20251;-69
2022/01/15 20:12:23;;;;;;;;;;;;;;;0.36;81.30;99368.78;1675410;84;21948;-77
2022/01/15 20:14:50;;;;;;;;;;;;;;;0.37;81.46;99383.91;1660050;85;20230;-69
2022/01/15 20:17:16;;;;;;;;;;;;;;;0.36;81.03;99393.08;1669718;85;20163;-75
2022/01/15 20:19:43;;;;;;;;;;;;;;;0.36;80.83;99368.24;1671425;85;20192;-75
2022/01/15 20:22:09;;;;;;;;;;;;;;;0.36;81.38;99366.89;1675411;85;20152;-69
2022/01/15 20:24:36;;;;;;;;;;;;;;;0.37;80.39;99368.52;1662192;85;21151;-69
2022/01/15 20:27:03;;;;;;;;;;;;;;;0.38;80.58;99391.76;1658315;85;20231;-71
2022/01/15 20:29:29;;;;;;;;;;;;;;;0.38;80.78;99388.24;1669100;85;20514;-74
2022/01/15 20:31:55;;;;;;;;;;;;;;;0.41;80.39;99409.34;1673255;85;20180;-70
2022/01/15 20:34:23;;;;;;;;;;;;;;;0.40;79.69;99399.61;1657549;86;20160;-74
2022/01/15 20:36:52;;;;;;;;;;;;;;;0.40;79.63;99406.36;1662901;85;20442;-72
2022/01/15 20:39:17;;;;;;;;;;;;;;;0.42;80.26;99433.92;1664242;85;20160;-74
2022/01/15 20:41:45;;;;;;;;;;;;;;;0.43;79.72;99435.56;1669976;85;20435;-74
2022/01/15 20:44:12;;;;;;;;;;;;;;;0.44;79.49;99423.69;1677253;85;20888;-73
2022/01/15 20:46:39;;;;;;;;;;;;;;;0.43;79.27;99423.41;1674369;85;20321;-70
2022/01/15 20:49:06;;;;;;;;;;;;;;;0.41;79.31;99439.86;1666083;85;21195;-70
2022/01/15 20:51:33;;;;;;;;;;;;;;;0.40;79.20;99417.16;1665304;85;20173;-73
2022/01/15 20:54:01;;;;;;;;;;;;;;;0.39;78.89;99411.48;1668693;84;20159;-72
2022/01/15 20:56:27;;;;;;;;;;;;;;;0.39;79.55;99431.73;1662938;85;20183;-74
2022/01/15 20:58:53;;;;;;;;;;;;;;;0.38;79.50;99430.09;1679563;85;20137;-73
2022/01/15 21:01:20;;;;;;;;;;;;;;;0.37;79.34;99441.44;1669535;85;21147;-67
2022/01/15 21:03:47;;;;;;;;;;;;;;;0.37;79.00;99444.67;1673912;85;21691;-76
2022/01/15 21:06:13;;;;;;;;;;;;;;;0.35;79.25;99431.41;1675230;85;20455;-73
2022/01/15 21:08:39;;;;;;;;;;;;;;;0.36;78.66;99445.20;1674679;85;21724;-73
2022/01/15 21:11:08;;;;;;;;;;;;;;;0.37;78.60;99445.48;1681215;85;20143;-73
2022/01/15 21:13:34;;;;;;;;;;;;;;;0.39;80.43;99440.65;1676227;85;22310;-70
2022/01/15 21:16:01;;;;;;;;;;;;;;;0.39;78.83;99443.34;1669696;85;20455;-71
2022/01/15 21:18:28;;;;;;;;;;;;;;;0.39;78.39;99438.48;1659996;85;20219;-70
2022/01/15 21:20:55;;;;;;;;;;;;;;;0.39;78.83;99442.00;1667876;84;20092;-73
2022/01/15 21:23:21;;;;;;;;;;;;;;;0.39;78.58;99439.83;1660402;85;20222;-69
2022/01/15 21:25:48;;;;;;;;;;;;;;;0.37;77.51;99432.52;1659827;85;21848;-67
2022/01/15 21:28:14;;;;;;;;;;;;;;;0.37;77.73;99441.44;1674061;84;20129;-67
2022/01/15 21:30:40;;;;;;;;;;;;;;;0.38;78.63;99447.66;1677360;85;20096;-73
2022/01/15 21:33:10;;;;;;;;;;;;;;;0.38;77.97;99440.90;1673644;84;20099;-68
2022/01/15 21:35:37;;;;;;;;;;;;;;;0.35;77.67;99443.56;1674798;85;20169;-67
2022/01/15 21:38:03;;;;;;;;;;;;;;;0.34;77.76;99443.28;1673560;84;21846;-67
2022/01/15 21:40:30;;;;;;;;;;;;;;;0.33;77.82;99448.41;1676996;85;20113;-67
2022/01/15 21:42:58;;;;;;;;;;;;;;;0.32;77.78;99448.12;1666515;84;20533;-67
2022/01/15 21:45:24;;;;;;;;;;;;;;;0.32;77.92;99458.92;1662450;85;20607;-69
2022/01/15 21:47:51;;;;;;;;;;;;;;;0.32;78.73;99472.42;1666526;85;20438;-67
2022/01/15 21:50:18;;;;;;;;;;;;;;;0.32;77.86;99454.34;1674086;85;21158;-68
2022/01/15 21:52:44;;;;;;;;;;;;;;;0.31;77.48;99459.98;1667088;85;20127;-67
2022/01/15 21:55:12;;;;;;;;;;;;;;;0.31;78.12;99486.45;1670184;85;20107;-68